Time;durP1;ratioP1;P1;durP2;ratioP2;P2;SDS_P1;SDS_P2;PMS_P1;PMS_P2;Temp;Humidity;BMP_temperature;BMP_pressure;BME280_temperature;BME280_humidity;BME280_pressure;Samples;Min_cycle;Max_cycle;Signal;HPM_P1;HPM_P2
2023/12/23 00:00:07;;;;;;;12.38;2.72;;;;;;;;;;5072581;28;20637;-78
2023/12/23 00:02:33;;;;;;;14.25;2.80;;;;;;;;;;5065373;28;20480;-78
2023/12/23 00:04:59;;;;;;;13.95;2.63;;;;;;;;;;5064116;28;20833;-78
2023/12/23 00:07:25;;;;;;;17.13;3.35;;;;;;;;;;5069025;28;20397;-79
2023/12/23 00:09:51;;;;;;;16.55;3.20;;;;;;;;;;5065738;28;20421;-78
2023/12/23 00:12:18;;;;;;;17.33;3.00;;;;;;;;;;5071338;28;21197;-78
2023/12/23 00:14:44;;;;;;;15.18;3.03;;;;;;;;;;5088084;28;20398;-79
2023/12/23 00:17:10;;;;;;;15.43;2.88;;;;;;;;;;5080051;28;20418;-78
2023/12/23 00:19:36;;;;;;;11.73;2.50;;;;;;;;;;5058079;28;20406;-78
2023/12/23 00:22:02;;;;;;;11.18;2.42;;;;;;;;;;5070858;28;20410;-79
2023/12/23 00:24:31;;;;;;;13.07;2.42;;;;;;;;;;5074465;28;20432;-79
2023/12/23 00:26:57;;;;;;;13.83;2.70;;;;;;;;;;5081689;28;20404;-78
2023/12/23 00:29:26;;;;;;;12.75;2.42;;;;;;;;;;5039486;28;20483;-79
2023/12/23 00:31:52;;;;;;;12.43;2.63;;;;;;;;;;5074714;28;20427;-78
2023/12/23 00:34:19;;;;;;;13.48;2.67;;;;;;;;;;5109715;27;20442;-79
2023/12/23 00:36:45;;;;;;;13.97;2.87;;;;;;;;;;5070904;28;20459;-78
2023/12/23 00:39:12;;;;;;;13.38;2.25;;;;;;;;;;5058024;28;20438;-78
2023/12/23 00:41:38;;;;;;;12.50;2.50;;;;;;;;;;5069490;28;20777;-78
2023/12/23 00:44:04;;;;;;;13.52;2.80;;;;;;;;;;5104812;28;20483;-78
2023/12/23 00:46:30;;;;;;;17.58;2.58;;;;;;;;;;5053955;28;20964;-78
2023/12/23 00:48:56;;;;;;;16.02;3.22;;;;;;;;;;5073750;28;20430;-78
2023/12/23 00:51:22;;;;;;;19.42;3.40;;;;;;;;;;5082692;28;20905;-78
2023/12/23 00:53:48;;;;;;;16.27;2.70;;;;;;;;;;5072986;28;20418;-78
2023/12/23 00:56:21;;;;;;;18.83;3.00;;;;;;;;;;5077986;28;20391;-78
2023/12/23 00:58:48;;;;;;;21.93;3.50;;;;;;;;;;5093412;28;20489;-79
2023/12/23 01:01:14;;;;;;;14.77;3.20;;;;;;;;;;5120787;27;20441;-78
2023/12/23 01:03:40;;;;;;;18.67;3.00;;;;;;;;;;5073731;28;20731;-78
2023/12/23 01:06:06;;;;;;;20.95;2.97;;;;;;;;;;5083849;28;20479;-79
2023/12/23 01:08:32;;;;;;;21.05;3.47;;;;;;;;;;5103599;28;20431;-79
2023/12/23 01:10:59;;;;;;;19.98;2.72;;;;;;;;;;5069985;28;20513;-78
2023/12/23 01:13:25;;;;;;;20.38;4.30;;;;;;;;;;5090201;28;20456;-79
2023/12/23 01:15:51;;;;;;;14.65;3.03;;;;;;;;;;5089389;28;20895;-80
2023/12/23 01:18:17;;;;;;;15.05;2.67;;;;;;;;;;5074542;28;20398;-79
2023/12/23 01:20:43;;;;;;;15.88;3.28;;;;;;;;;;5075432;28;20414;-79
2023/12/23 01:23:10;;;;;;;17.30;3.72;;;;;;;;;;5089722;28;20446;-79
2023/12/23 01:25:36;;;;;;;15.65;3.00;;;;;;;;;;5081515;28;20400;-79
2023/12/23 01:28:05;;;;;;;16.27;2.80;;;;;;;;;;5081179;28;20544;-79
2023/12/23 01:30:34;;;;;;;16.15;3.20;;;;;;;;;;5058114;28;20433;-79
2023/12/23 01:33:01;;;;;;;14.27;2.70;;;;;;;;;;5073644;28;20429;-79
2023/12/23 01:35:27;;;;;;;19.85;3.15;;;;;;;;;;5087097;28;20766;-79
2023/12/23 01:37:53;;;;;;;16.90;3.40;;;;;;;;;;5065845;28;20398;-79
2023/12/23 01:40:19;;;;;;;18.13;3.30;;;;;;;;;;5123007;28;20409;-79
2023/12/23 01:42:45;;;;;;;15.90;2.83;;;;;;;;;;5069253;28;20483;-80
2023/12/23 01:45:11;;;;;;;17.63;3.08;;;;;;;;;;5084997;28;20610;-80
2023/12/23 01:47:40;;;;;;;14.63;2.90;;;;;;;;;;5073578;28;20765;-80
2023/12/23 01:50:07;;;;;;;18.73;3.10;;;;;;;;;;5089318;28;20405;-80
2023/12/23 01:52:34;;;;;;;13.40;2.80;;;;;;;;;;5072325;28;20898;-80
2023/12/23 01:55:00;;;;;;;15.18;3.50;;;;;;;;;;5107003;28;20394;-80
2023/12/23 01:57:26;;;;;;;18.73;2.87;;;;;;;;;;5076135;28;20404;-79
2023/12/23 01:59:52;;;;;;;13.55;2.63;;;;;;;;;;5089674;28;20961;-79
2023/12/23 02:02:18;;;;;;;15.25;2.85;;;;;;;;;;5071934;28;20758;-79
2023/12/23 02:04:45;;;;;;;10.25;2.25;;;;;;;;;;5104038;28;20403;-80
2023/12/23 02:07:11;;;;;;;11.02;2.50;;;;;;;;;;5072708;28;20400;-79
2023/12/23 02:09:37;;;;;;;12.80;1.80;;;;;;;;;;5099210;28;20503;-79
2023/12/23 02:12:10;;;;;;;9.02;1.98;;;;;;;;;;5091359;28;20419;-79
2023/12/23 02:14:40;;;;;;;12.35;3.05;;;;;;;;;;5077176;28;20387;-79
2023/12/23 02:17:07;;;;;;;9.75;1.90;;;;;;;;;;5077775;28;20526;-78
2023/12/23 02:19:33;;;;;;;8.55;2.00;;;;;;;;;;5083360;28;20444;-78
2023/12/23 02:21:59;;;;;;;9.73;2.05;;;;;;;;;;5089500;28;20464;-78
2023/12/23 02:24:26;;;;;;;10.07;2.10;;;;;;;;;;5068782;28;20406;-78
2023/12/23 02:26:56;;;;;;;10.35;1.98;;;;;;;;;;5093534;28;20405;-78
2023/12/23 02:29:23;;;;;;;11.85;1.73;;;;;;;;;;5092988;28;20758;-78
2023/12/23 02:31:49;;;;;;;12.60;2.35;;;;;;;;;;5084391;28;20422;-78
2023/12/23 02:34:15;;;;;;;13.50;2.00;;;;;;;;;;5075030;28;20398;-79
2023/12/23 02:36:41;;;;;;;11.45;2.15;;;;;;;;;;5063985;28;20891;-79
2023/12/23 02:39:08;;;;;;;9.82;2.40;;;;;;;;;;5056972;28;20399;-78
2023/12/23 02:41:34;;;;;;;11.98;2.13;;;;;;;;;;5101487;28;20398;-79
2023/12/23 02:44:00;;;;;;;12.13;1.95;;;;;;;;;;5085270;28;20891;-79
2023/12/23 02:46:26;;;;;;;11.52;2.00;;;;;;;;;;5049851;28;20404;-80
2023/12/23 02:48:52;;;;;;;10.75;2.20;;;;;;;;;;5072741;28;20410;-80
2023/12/23 02:51:18;;;;;;;12.80;2.28;;;;;;;;;;5099862;27;20828;-80
2023/12/23 02:53:44;;;;;;;13.90;1.77;;;;;;;;;;5096166;27;20440;-80
2023/12/23 02:56:10;;;;;;;11.73;2.05;;;;;;;;;;5086404;28;20407;-80
2023/12/23 02:58:36;;;;;;;15.43;2.33;;;;;;;;;;5124051;27;20489;-80
2023/12/23 03:01:07;;;;;;;13.07;2.13;;;;;;;;;;5068653;28;20406;-80
2023/12/23 03:03:34;;;;;;;13.10;2.30;;;;;;;;;;5074599;28;20410;-80
2023/12/23 03:06:00;;;;;;;14.80;2.00;;;;;;;;;;5090033;28;20417;-80
2023/12/23 03:08:26;;;;;;;13.48;2.17;;;;;;;;;;5085753;28;20398;-80
2023/12/23 03:10:52;;;;;;;17.50;2.30;;;;;;;;;;5092372;28;20426;-80
2023/12/23 03:13:18;;;;;;;10.95;1.83;;;;;;;;;;5056601;28;20407;-80
2023/12/23 03:15:44;;;;;;;15.02;2.17;;;;;;;;;;5082098;28;20482;-80
2023/12/23 03:18:10;;;;;;;12.75;1.95;;;;;;;;;;5069050;28;20405;-81
2023/12/23 03:20:36;;;;;;;13.68;2.67;;;;;;;;;;5057392;28;20402;-81
2023/12/23 03:23:05;;;;;;;17.23;2.83;;;;;;;;;;5044487;28;20408;-81
2023/12/23 03:25:31;;;;;;;14.75;2.22;;;;;;;;;;5069678;28;20444;-82
2023/12/23 03:27:57;;;;;;;14.60;2.10;;;;;;;;;;5058528;28;20757;-81
2023/12/23 03:30:24;;;;;;;15.02;2.50;;;;;;;;;;5057247;28;20417;-80
2023/12/23 03:32:50;;;;;;;15.97;2.47;;;;;;;;;;5055312;28;20453;-81
2023/12/23 03:35:16;;;;;;;18.50;2.60;;;;;;;;;;5080853;28;20401;-80
2023/12/23 03:37:42;;;;;;;17.02;2.20;;;;;;;;;;5048969;28;20414;-81
2023/12/23 03:40:08;;;;;;;16.07;2.50;;;;;;;;;;5074599;28;20867;-81
2023/12/23 03:42:35;;;;;;;22.45;2.70;;;;;;;;;;5056772;28;20467;-79
2023/12/23 03:45:01;;;;;;;20.25;2.20;;;;;;;;;;5058251;28;20398;-81
2023/12/23 03:47:27;;;;;;;17.02;2.08;;;;;;;;;;5060741;28;20411;-81
2023/12/23 03:49:53;;;;;;;18.02;2.72;;;;;;;;;;5072730;28;20406;-80
2023/12/23 03:52:19;;;;;;;21.35;2.90;;;;;;;;;;5085528;28;20410;-81
2023/12/23 03:54:45;;;;;;;16.15;2.50;;;;;;;;;;5090179;28;20416;-80
2023/12/23 03:57:11;;;;;;;20.33;2.70;;;;;;;;;;5056223;28;20410;-81
2023/12/23 03:59:39;;;;;;;20.42;2.60;;;;;;;;;;5054716;28;20456;-81
2023/12/23 04:02:05;;;;;;;15.32;2.88;;;;;;;;;;5058725;28;20910;-81
2023/12/23 04:04:32;;;;;;;15.77;2.40;;;;;;;;;;5060756;28;20465;-81
2023/12/23 04:06:58;;;;;;;19.87;2.53;;;;;;;;;;5065184;28;20410;-81
2023/12/23 04:09:24;;;;;;;18.15;2.60;;;;;;;;;;5074256;28;20409;-81
2023/12/23 04:11:50;;;;;;;19.92;3.30;;;;;;;;;;5063193;28;20501;-81
2023/12/23 04:14:16;;;;;;;16.23;2.58;;;;;;;;;;5106397;28;20917;-81
2023/12/23 04:16:43;;;;;;;21.90;2.90;;;;;;;;;;5101269;28;20397;-81
2023/12/23 04:19:09;;;;;;;21.20;3.05;;;;;;;;;;5073756;28;20395;-81
2023/12/23 04:21:36;;;;;;;17.50;2.47;;;;;;;;;;5114300;27;20404;-81
2023/12/23 04:24:02;;;;;;;12.60;2.72;;;;;;;;;;5086626;28;20405;-81
2023/12/23 04:26:29;;;;;;;15.80;2.55;;;;;;;;;;5073228;28;20492;-81
2023/12/23 04:28:55;;;;;;;16.35;2.83;;;;;;;;;;5105841;27;20407;-81
2023/12/23 04:31:21;;;;;;;14.27;2.67;;;;;;;;;;5081278;28;20929;-81
2023/12/23 04:33:47;;;;;;;13.45;3.08;;;;;;;;;;5081623;28;20865;-81
2023/12/23 04:36:13;;;;;;;14.48;2.70;;;;;;;;;;5082109;28;20900;-81
2023/12/23 04:38:39;;;;;;;16.05;2.95;;;;;;;;;;5090472;28;20392;-81
2023/12/23 04:41:06;;;;;;;10.23;2.42;;;;;;;;;;5081599;28;20735;-80
2023/12/23 04:43:32;;;;;;;12.60;2.55;;;;;;;;;;5058810;28;20518;-80
2023/12/23 04:45:58;;;;;;;20.37;2.77;;;;;;;;;;5076228;28;20404;-81
2023/12/23 04:48:25;;;;;;;9.52;2.50;;;;;;;;;;5071472;28;20425;-81
2023/12/23 04:50:51;;;;;;;12.07;2.53;;;;;;;;;;5073790;28;20751;-81
2023/12/23 04:53:18;;;;;;;15.02;2.97;;;;;;;;;;5073213;28;20495;-81
2023/12/23 04:55:44;;;;;;;13.65;2.45;;;;;;;;;;5073268;28;20451;-81
2023/12/23 04:58:10;;;;;;;13.00;3.00;;;;;;;;;;5072584;28;20417;-80
2023/12/23 05:00:36;;;;;;;13.10;2.60;;;;;;;;;;5116342;27;20477;-80
2023/12/23 05:03:02;;;;;;;10.83;2.37;;;;;;;;;;5073269;28;20401;-80
2023/12/23 05:05:28;;;;;;;11.95;2.92;;;;;;;;;;5088531;28;20892;-81
2023/12/23 05:07:54;;;;;;;10.95;2.40;;;;;;;;;;5082257;28;20408;-80
2023/12/23 05:10:20;;;;;;;13.33;2.40;;;;;;;;;;5089813;28;20513;-80
2023/12/23 05:12:46;;;;;;;9.32;2.42;;;;;;;;;;5090332;28;20422;-81
2023/12/23 05:15:12;;;;;;;10.05;2.30;;;;;;;;;;5042939;28;20888;-81
2023/12/23 05:17:38;;;;;;;11.60;2.37;;;;;;;;;;5081422;28;20504;-81
2023/12/23 05:20:05;;;;;;;9.77;2.40;;;;;;;;;;5057267;28;20429;-81
2023/12/23 05:22:31;;;;;;;152.97;14.17;;;;;;;;;;5063937;28;20495;-81
2023/12/23 05:24:57;;;;;;;69.03;7.57;;;;;;;;;;5039891;28;20413;-81
2023/12/23 05:27:23;;;;;;;8.20;2.10;;;;;;;;;;5060434;28;20402;-81
2023/12/23 05:29:49;;;;;;;8.70;2.20;;;;;;;;;;5071422;28;20523;-81
2023/12/23 05:32:15;;;;;;;111.78;7.55;;;;;;;;;;5060282;28;20464;-81
2023/12/23 05:34:41;;;;;;;83.95;6.50;;;;;;;;;;5073333;28;20402;-81
2023/12/23 05:37:07;;;;;;;84.80;5.37;;;;;;;;;;5064141;28;20808;-81
2023/12/23 05:39:34;;;;;;;339.35;20.13;;;;;;;;;;5072180;28;20409;-81
2023/12/23 05:42:00;;;;;;;246.52;13.13;;;;;;;;;;5063594;28;20494;-81
2023/12/23 05:44:26;;;;;;;9.53;2.13;;;;;;;;;;5053747;28;20409;-81
2023/12/23 05:46:52;;;;;;;11.32;2.17;;;;;;;;;;5060643;28;20539;-81
2023/12/23 05:49:18;;;;;;;21.33;2.90;;;;;;;;;;5070169;28;20403;-81
2023/12/23 05:51:44;;;;;;;136.43;7.80;;;;;;;;;;5085036;28;20438;-81
2023/12/23 05:54:10;;;;;;;109.35;6.82;;;;;;;;;;5055150;28;20394;-81
2023/12/23 05:56:36;;;;;;;430.23;49.22;;;;;;;;;;5085775;28;20442;-80
2023/12/23 05:59:02;;;;;;;34.67;20.30;;;;;;;;;;5073780;28;20407;-80
2023/12/23 06:01:28;;;;;;;136.60;11.20;;;;;;;;;;5075942;28;20402;-80
2023/12/23 06:03:54;;;;;;;5.30;1.50;;;;;;;;;;5065171;28;20488;-80
2023/12/23 06:06:20;;;;;;;4.78;1.30;;;;;;;;;;5043601;28;20485;-81
2023/12/23 06:08:47;;;;;;;57.75;3.60;;;;;;;;;;5077891;28;20529;-80
2023/12/23 06:11:13;;;;;;;35.15;3.25;;;;;;;;;;5063478;28;20419;-81
2023/12/23 06:13:40;;;;;;;92.35;7.32;;;;;;;;;;5090530;28;20887;-81
2023/12/23 06:16:06;;;;;;;4.40;1.25;;;;;;;;;;5090675;28;20478;-80
2023/12/23 06:18:33;;;;;;;11.98;1.65;;;;;;;;;;5085958;28;20522;-81
2023/12/23 06:20:59;;;;;;;96.45;9.60;;;;;;;;;;5077038;28;20454;-81
2023/12/23 06:23:25;;;;;;;40.25;6.30;;;;;;;;;;5108192;28;20408;-81
2023/12/23 06:25:51;;;;;;;9.83;1.40;;;;;;;;;;5093633;28;20451;-81
2023/12/23 06:28:17;;;;;;;75.70;5.50;;;;;;;;;;5085023;28;20409;-80
2023/12/23 06:30:43;;;;;;;99.50;9.40;;;;;;;;;;5075994;28;20422;-81
2023/12/23 06:33:09;;;;;;;4.10;1.80;;;;;;;;;;5108802;27;20484;-81
2023/12/23 06:35:36;;;;;;;94.50;5.68;;;;;;;;;;5128144;27;20402;-81
2023/12/23 06:38:02;;;;;;;3.97;1.48;;;;;;;;;;5127764;27;20409;-81
2023/12/23 06:40:31;;;;;;;3.80;1.33;;;;;;;;;;5127829;27;20418;-80
2023/12/23 06:42:57;;;;;;;4.05;1.40;;;;;;;;;;5097662;28;20450;-79
2023/12/23 06:45:23;;;;;;;5.55;1.58;;;;;;;;;;5081280;28;20402;-80
2023/12/23 06:47:50;;;;;;;3.50;1.30;;;;;;;;;;5099627;28;20888;-80
2023/12/23 06:50:16;;;;;;;4.00;1.50;;;;;;;;;;5091939;28;20409;-81
2023/12/23 06:52:42;;;;;;;5.28;1.55;;;;;;;;;;5073025;28;20897;-80
2023/12/23 06:55:08;;;;;;;3.05;1.20;;;;;;;;;;5090814;28;20398;-82
2023/12/23 06:57:34;;;;;;;59.42;4.20;;;;;;;;;;5091394;28;20407;-81
2023/12/23 07:00:00;;;;;;;3.53;1.30;;;;;;;;;;5088850;28;20755;-82
2023/12/23 07:02:26;;;;;;;7.00;1.73;;;;;;;;;;5084676;28;20917;-81
2023/12/23 07:04:52;;;;;;;4.43;1.90;;;;;;;;;;5072501;28;20903;-81
2023/12/23 07:07:18;;;;;;;5.85;2.00;;;;;;;;;;5083784;28;20530;-81
2023/12/23 07:09:45;;;;;;;4.60;2.17;;;;;;;;;;5053093;28;20418;-84
2023/12/23 07:12:11;;;;;;;4.50;2.20;;;;;;;;;;5054242;28;20420;-82
2023/12/23 07:14:37;;;;;;;3.50;2.00;;;;;;;;;;5090913;28;20383;-82
2023/12/23 07:17:03;;;;;;;4.10;2.15;;;;;;;;;;5082174;28;20389;-83
2023/12/23 07:19:30;;;;;;;2.78;1.45;;;;;;;;;;5083301;28;20417;-83
2023/12/23 07:21:56;;;;;;;2.80;1.30;;;;;;;;;;5075312;28;20609;-82
2023/12/23 07:24:22;;;;;;;3.65;1.50;;;;;;;;;;5071771;28;20909;-83
2023/12/23 07:26:48;;;;;;;3.28;1.50;;;;;;;;;;5076066;28;20519;-83
2023/12/23 07:29:14;;;;;;;4.63;1.60;;;;;;;;;;5075227;28;20890;-84
2023/12/23 07:31:40;;;;;;;5.10;1.88;;;;;;;;;;5114922;27;20424;-84
2023/12/23 07:34:07;;;;;;;5.65;2.30;;;;;;;;;;5089724;28;20395;-83
2023/12/23 07:36:33;;;;;;;6.75;2.50;;;;;;;;;;5059263;28;20421;-83
2023/12/23 07:38:59;;;;;;;6.38;2.25;;;;;;;;;;5051140;28;20510;-83
2023/12/23 07:41:25;;;;;;;6.22;2.10;;;;;;;;;;5073842;28;20401;-82
2023/12/23 07:43:52;;;;;;;5.50;1.90;;;;;;;;;;5120787;27;20437;-82
2023/12/23 07:46:18;;;;;;;7.75;3.15;;;;;;;;;;5083113;28;20761;-82
2023/12/23 07:48:44;;;;;;;5.35;2.40;;;;;;;;;;5073441;28;20394;-81
2023/12/23 07:51:10;;;;;;;4.80;1.88;;;;;;;;;;5089807;28;20758;-82
2023/12/23 07:53:36;;;;;;;5.47;2.28;;;;;;;;;;5091495;28;20402;-81
2023/12/23 07:56:03;;;;;;;4.30;2.10;;;;;;;;;;5056251;28;20927;-82
2023/12/23 07:58:29;;;;;;;5.15;2.00;;;;;;;;;;5085275;28;20480;-81
2023/12/23 08:00:55;;;;;;;5.57;2.67;;;;;;;;;;5054052;28;21025;-82
2023/12/23 08:03:24;;;;;;;3.95;1.70;;;;;;;;;;5125621;27;20840;-82
2023/12/23 08:05:50;;;;;;;4.50;1.52;;;;;;;;;;5100700;28;20398;-79
2023/12/23 08:08:16;;;;;;;5.90;1.90;;;;;;;;;;5116081;27;20411;-83
2023/12/23 08:10:42;;;;;;;3.95;1.60;;;;;;;;;;5077533;28;20781;-84
2023/12/23 08:13:09;;;;;;;2.85;1.38;;;;;;;;;;5061659;28;20423;-86
2023/12/23 08:15:35;;;;;;;4.75;1.60;;;;;;;;;;5056774;28;20395;-83
2023/12/23 08:18:01;;;;;;;11.67;2.20;;;;;;;;;;5061046;28;20420;-84
2023/12/23 08:20:28;;;;;;;4.70;1.85;;;;;;;;;;5074558;28;20404;-86
2023/12/23 08:22:54;;;;;;;5.70;2.10;;;;;;;;;;5063868;28;20402;-84
2023/12/23 08:25:20;;;;;;;4.32;1.90;;;;;;;;;;5076388;28;20429;-83
2023/12/23 08:27:46;;;;;;;8.07;2.30;;;;;;;;;;5059230;28;20441;-86
2023/12/23 08:30:12;;;;;;;5.95;2.10;;;;;;;;;;5072348;28;20401;-85
2023/12/23 08:32:38;;;;;;;5.40;2.00;;;;;;;;;;5105826;28;20413;-86
2023/12/23 08:35:05;;;;;;;6.07;2.50;;;;;;;;;;5074779;28;20406;-85
2023/12/23 08:37:40;;;;;;;4.80;2.07;;;;;;;;;;5074683;28;20406;-83
2023/12/23 08:40:10;;;;;;;6.35;2.08;;;;;;;;;;5086066;28;20628;-83
2023/12/23 08:42:51;;;;;;;7.05;2.80;;;;;;;;;;5074922;28;20398;-82
2023/12/23 08:45:23;;;;;;;5.63;2.30;;;;;;;;;;5101144;28;20403;-85
2023/12/23 08:47:49;;;;;;;4.45;2.50;;;;;;;;;;5058384;28;20843;-84
2023/12/23 08:50:15;;;;;;;5.97;2.38;;;;;;;;;;5091427;28;20800;-84
2023/12/23 08:52:41;;;;;;;27.30;12.10;;;;;;;;;;5089556;28;20972;-84
2023/12/23 08:55:07;;;;;;;18.35;9.13;;;;;;;;;;5096510;28;20832;-83
2023/12/23 08:57:34;;;;;;;44.28;16.63;;;;;;;;;;5090419;28;20924;-85
2023/12/23 09:00:00;;;;;;;5.35;2.78;;;;;;;;;;5074884;28;20416;-85
2023/12/23 09:02:27;;;;;;;5.40;2.27;;;;;;;;;;5074495;28;20815;-85
2023/12/23 09:04:53;;;;;;;5.32;2.13;;;;;;;;;;5071559;28;20411;-86
2023/12/23 09:07:19;;;;;;;4.90;1.80;;;;;;;;;;5074610;28;20421;-84
2023/12/23 09:09:45;;;;;;;5.00;2.22;;;;;;;;;;5092044;28;20412;-86
2023/12/23 09:12:14;;;;;;;7.15;4.97;;;;;;;;;;5099091;28;20428;-82
2023/12/23 09:14:42;;;;;;;6.03;4.00;;;;;;;;;;5050267;28;20756;-82
2023/12/23 09:17:08;;;;;;;4.93;3.03;;;;;;;;;;5072749;28;20402;-82
2023/12/23 09:19:37;;;;;;;6.43;2.10;;;;;;;;;;5069352;28;20409;-86
2023/12/23 09:22:04;;;;;;;3.90;2.03;;;;;;;;;;5032735;28;20406;-86
2023/12/23 09:24:30;;;;;;;4.63;2.13;;;;;;;;;;5032940;28;20424;-82
2023/12/23 09:26:56;;;;;;;9.45;4.88;;;;;;;;;;5049927;28;20396;-82
2023/12/23 09:29:22;;;;;;;5.90;2.75;;;;;;;;;;5092725;28;20430;-85
2023/12/23 09:31:48;;;;;;;3.75;1.67;;;;;;;;;;5055693;28;20423;-84
2023/12/23 09:34:17;;;;;;;3.42;1.70;;;;;;;;;;5037022;28;20479;-88
2023/12/23 09:36:43;;;;;;;4.43;2.00;;;;;;;;;;5052746;28;20412;-89
2023/12/23 09:39:12;;;;;;;9.40;2.72;;;;;;;;;;5052270;28;20934;-87
2023/12/23 09:41:41;;;;;;;4.78;1.90;;;;;;;;;;5086453;28;20475;-85
2023/12/23 09:44:07;;;;;;;5.25;2.10;;;;;;;;;;5050408;28;20485;-82
2023/12/23 09:46:37;;;;;;;211.85;14.45;;;;;;;;;;5051126;28;20422;-83
2023/12/23 09:49:06;;;;;;;6.45;3.08;;;;;;;;;;5046564;28;20418;-83
2023/12/23 09:51:34;;;;;;;11.17;3.90;;;;;;;;;;5068062;28;20504;-82
2023/12/23 09:54:03;;;;;;;7.07;4.87;;;;;;;;;;5072502;28;20574;-82
2023/12/23 09:56:35;;;;;;;7.53;5.10;;;;;;;;;;5070288;28;20812;-82
2023/12/23 09:59:04;;;;;;;152.07;10.00;;;;;;;;;;5071079;28;20409;-82
2023/12/23 10:01:30;;;;;;;10.75;5.45;;;;;;;;;;5085242;28;20417;-85
2023/12/23 10:03:56;;;;;;;9.40;5.13;;;;;;;;;;5055397;28;20735;-85
2023/12/23 10:06:23;;;;;;;12.55;7.55;;;;;;;;;;5056044;28;20802;-85
2023/12/23 10:08:50;;;;;;;11.07;4.33;;;;;;;;;;5070495;28;20414;-87
2023/12/23 10:11:17;;;;;;;8.53;4.13;;;;;;;;;;5069020;28;20790;-87
2023/12/23 10:13:45;;;;;;;9.33;4.37;;;;;;;;;;5056064;28;20398;-85
2023/12/23 10:16:14;;;;;;;6.80;3.67;;;;;;;;;;5057240;28;20511;-87
2023/12/23 10:18:40;;;;;;;10.10;6.10;;;;;;;;;;5056969;28;20477;-83
2023/12/23 10:21:09;;;;;;;10.63;5.03;;;;;;;;;;5055952;28;20458;-82
2023/12/23 10:23:35;;;;;;;11.07;6.75;;;;;;;;;;5059427;28;20400;-87
2023/12/23 10:26:02;;;;;;;7.43;4.68;;;;;;;;;;5079238;28;20411;-83
2023/12/23 10:28:28;;;;;;;9.30;5.45;;;;;;;;;;5066465;28;20425;-85
2023/12/23 10:30:57;;;;;;;17.15;8.65;;;;;;;;;;5048661;28;20957;-83
2023/12/23 10:33:24;;;;;;;11.65;6.85;;;;;;;;;;5049106;28;20429;-86
2023/12/23 10:35:51;;;;;;;11.30;6.40;;;;;;;;;;5083057;28;20423;-83
2023/12/23 10:38:20;;;;;;;108.13;29.83;;;;;;;;;;5057422;28;20403;-85
2023/12/23 10:41:08;;;;;;;31.35;21.65;;;;;;;;;;5059289;28;20461;-85
2023/12/23 10:43:36;;;;;;;16.35;10.60;;;;;;;;;;5051987;28;20473;-85
2023/12/23 10:46:03;;;;;;;15.23;9.52;;;;;;;;;;5072842;28;20945;-86
2023/12/23 10:48:29;;;;;;;15.82;9.40;;;;;;;;;;5079109;28;20408;-85
2023/12/23 10:50:58;;;;;;;10.85;6.55;;;;;;;;;;5050776;28;20845;-85
2023/12/23 10:53:25;;;;;;;12.98;7.00;;;;;;;;;;5056880;28;20406;-86
2023/12/23 10:56:14;;;;;;;10.65;5.10;;;;;;;;;;5055602;28;20452;-86
2023/12/23 10:58:40;;;;;;;8.98;4.32;;;;;;;;;;5070294;28;20455;-86
2023/12/23 11:01:11;;;;;;;8.35;4.35;;;;;;;;;;5070958;28;20426;-86
2023/12/23 11:03:47;;;;;;;12.15;5.82;;;;;;;;;;5052581;28;20486;-84
2023/12/23 11:09:51;;;;;;;9.68;6.05;;;;;;;;;;4987874;28;20862;-82
2023/12/23 11:12:32;;;;;;;11.23;6.70;;;;;;;;;;5018523;28;20423;-81
2023/12/23 11:15:16;;;;;;;13.05;8.02;;;;;;;;;;5066779;28;20409;-81
2023/12/23 11:18:11;;;;;;;14.13;7.78;;;;;;;;;;5019073;28;20394;-83
2023/12/23 11:20:47;;;;;;;10.32;5.88;;;;;;;;;;5026499;28;20411;-81
2023/12/23 11:23:32;;;;;;;12.30;6.60;;;;;;;;;;5028595;28;20898;-81
2023/12/23 11:25:58;;;;;;;11.32;5.18;;;;;;;;;;5043663;28;20814;-81
2023/12/23 11:28:28;;;;;;;14.00;5.78;;;;;;;;;;5013313;28;20517;-83
2023/12/23 11:30:58;;;;;;;12.63;5.70;;;;;;;;;;5029273;28;20997;-83
2023/12/23 11:33:25;;;;;;;10.25;4.13;;;;;;;;;;5013601;28;20969;-84
2023/12/23 11:35:52;;;;;;;11.98;5.07;;;;;;;;;;5046468;28;20430;-82
2023/12/23 11:38:20;;;;;;;18.60;7.13;;;;;;;;;;5013421;28;20930;-83
2023/12/23 11:40:47;;;;;;;17.50;6.53;;;;;;;;;;5061042;28;20424;-83
2023/12/23 11:43:13;;;;;;;18.98;7.60;;;;;;;;;;5070115;28;20406;-83
2023/12/23 11:45:39;;;;;;;14.40;5.72;;;;;;;;;;5064906;28;20407;-83
2023/12/23 11:48:10;;;;;;;16.88;7.03;;;;;;;;;;5069490;28;20409;-83
2023/12/23 11:50:36;;;;;;;18.55;8.88;;;;;;;;;;5091678;28;20426;-81
2023/12/23 11:53:02;;;;;;;23.67;10.35;;;;;;;;;;5072002;28;20833;-79
2023/12/23 11:55:29;;;;;;;13.65;5.45;;;;;;;;;;5070461;28;20748;-79
2023/12/23 11:57:55;;;;;;;17.00;5.80;;;;;;;;;;5071496;28;20439;-80
2023/12/23 12:00:21;;;;;;;17.10;6.07;;;;;;;;;;5065782;28;20773;-81
2023/12/23 12:02:47;;;;;;;15.32;4.57;;;;;;;;;;5045824;28;20919;-80
2023/12/23 12:05:13;;;;;;;18.15;6.07;;;;;;;;;;5090965;28;20741;-80
2023/12/23 12:07:39;;;;;;;13.15;4.95;;;;;;;;;;5086525;28;20750;-81
2023/12/23 12:10:05;;;;;;;13.52;5.30;;;;;;;;;;5071446;28;20406;-81
2023/12/23 12:12:31;;;;;;;16.67;5.78;;;;;;;;;;5118752;27;20574;-82
2023/12/23 12:14:58;;;;;;;15.80;5.20;;;;;;;;;;5091775;27;20425;-84
2023/12/23 12:17:24;;;;;;;14.67;4.83;;;;;;;;;;5106592;27;20981;-83
2023/12/23 12:19:54;;;;;;;13.55;3.35;;;;;;;;;;5073349;28;20394;-83
2023/12/23 12:22:21;;;;;;;11.40;3.90;;;;;;;;;;5089553;28;20414;-84
2023/12/23 12:24:48;;;;;;;14.48;4.38;;;;;;;;;;5089510;28;20749;-83
2023/12/23 12:27:14;;;;;;;17.27;3.40;;;;;;;;;;5091691;28;20457;-81
2023/12/23 12:29:40;;;;;;;14.45;3.40;;;;;;;;;;5111690;27;20398;-81
2023/12/23 12:32:12;;;;;;;17.87;3.50;;;;;;;;;;5056634;28;21177;-83
2023/12/23 12:34:38;;;;;;;19.10;3.70;;;;;;;;;;5074889;28;20489;-84
2023/12/23 12:37:04;;;;;;;17.45;3.75;;;;;;;;;;5076181;28;20497;-85
2023/12/23 12:39:30;;;;;;;20.87;3.67;;;;;;;;;;5092471;28;20450;-80
2023/12/23 12:41:56;;;;;;;22.10;3.80;;;;;;;;;;5072978;28;20410;-84
2023/12/23 12:44:22;;;;;;;18.60;4.43;;;;;;;;;;5083915;28;20411;-84
2023/12/23 12:46:55;;;;;;;20.33;3.80;;;;;;;;;;5089696;28;20405;-85
2023/12/23 12:49:22;;;;;;;15.10;3.33;;;;;;;;;;5070910;28;20409;-84
2023/12/23 12:51:49;;;;;;;17.67;3.80;;;;;;;;;;5070099;28;20444;-85
2023/12/23 12:54:16;;;;;;;27.67;5.73;;;;;;;;;;5086029;28;20432;-85
2023/12/23 12:56:42;;;;;;;23.02;4.85;;;;;;;;;;5072655;28;20433;-84
2023/12/23 12:59:08;;;;;;;28.08;5.05;;;;;;;;;;5069066;28;20413;-84
2023/12/23 13:01:35;;;;;;;26.35;7.47;;;;;;;;;;5088472;28;20413;-81
2023/12/23 13:04:01;;;;;;;28.73;7.18;;;;;;;;;;5108358;27;20430;-81
2023/12/23 13:06:27;;;;;;;25.40;5.07;;;;;;;;;;5083560;28;20422;-80
2023/12/23 13:08:53;;;;;;;27.10;7.47;;;;;;;;;;5052280;28;20984;-80
2023/12/23 13:11:19;;;;;;;27.15;6.70;;;;;;;;;;5088227;28;20816;-80
2023/12/23 13:13:47;;;;;;;25.52;5.03;;;;;;;;;;5083106;28;20449;-80
2023/12/23 13:16:13;;;;;;;28.85;5.55;;;;;;;;;;5086392;28;20411;-83
2023/12/23 13:18:40;;;;;;;31.88;5.70;;;;;;;;;;5067380;28;20423;-81
2023/12/23 13:21:06;;;;;;;26.20;5.07;;;;;;;;;;5092335;28;20893;-81
2023/12/23 13:23:32;;;;;;;30.63;5.30;;;;;;;;;;5082360;28;20404;-80
2023/12/23 13:25:59;;;;;;;26.88;6.43;;;;;;;;;;5053724;28;20422;-81
2023/12/23 13:28:25;;;;;;;28.63;5.85;;;;;;;;;;5086940;28;20404;-81
2023/12/23 13:30:51;;;;;;;26.40;4.93;;;;;;;;;;5079451;28;20422;-81
2023/12/23 13:33:17;;;;;;;19.75;4.22;;;;;;;;;;5068679;28;20481;-81
2023/12/23 13:35:43;;;;;;;24.33;5.32;;;;;;;;;;5061301;28;20458;-84
2023/12/23 13:38:10;;;;;;;19.92;4.82;;;;;;;;;;5101125;28;20475;-85
2023/12/23 13:40:36;;;;;;;32.50;6.10;;;;;;;;;;5087654;28;20479;-81
2023/12/23 13:43:02;;;;;;;20.17;4.72;;;;;;;;;;5084915;28;20445;-80
2023/12/23 13:45:28;;;;;;;20.48;4.18;;;;;;;;;;5065934;28;20486;-83
2023/12/23 13:47:54;;;;;;;26.88;5.65;;;;;;;;;;5087005;28;20405;-84
2023/12/23 13:50:21;;;;;;;21.65;4.63;;;;;;;;;;5086281;28;20424;-86
2023/12/23 13:52:47;;;;;;;20.10;4.70;;;;;;;;;;5079727;28;20741;-81
2023/12/23 13:55:13;;;;;;;21.30;4.25;;;;;;;;;;5106109;28;20457;-81
2023/12/23 13:57:40;;;;;;;21.05;4.80;;;;;;;;;;5107863;27;20437;-81
2023/12/23 14:00:06;;;;;;;24.13;4.38;;;;;;;;;;5111368;28;20422;-81
2023/12/23 14:02:32;;;;;;;22.98;4.35;;;;;;;;;;5071584;28;20425;-80
2023/12/23 14:04:59;;;;;;;25.00;4.53;;;;;;;;;;5068325;28;20911;-80
2023/12/23 14:07:25;;;;;;;25.38;4.90;;;;;;;;;;5071598;28;20971;-81
2023/12/23 14:09:51;;;;;;;18.92;4.13;;;;;;;;;;5085222;28;20424;-80
2023/12/23 14:12:17;;;;;;;18.60;4.30;;;;;;;;;;5072879;28;20431;-81
2023/12/23 14:14:46;;;;;;;23.35;4.80;;;;;;;;;;5070726;28;20482;-81
2023/12/23 14:17:12;;;;;;;22.13;4.27;;;;;;;;;;5110859;27;20502;-81
2023/12/23 14:19:38;;;;;;;17.05;3.80;;;;;;;;;;5075474;28;20777;-80
2023/12/23 14:22:07;;;;;;;24.23;4.70;;;;;;;;;;5080497;28;20398;-81
2023/12/23 14:24:33;;;;;;;21.95;4.35;;;;;;;;;;5072057;28;20486;-81
2023/12/23 14:27:00;;;;;;;21.58;4.35;;;;;;;;;;5087701;28;20410;-81
2023/12/23 14:29:27;;;;;;;22.15;4.70;;;;;;;;;;5079016;28;20471;-83
2023/12/23 14:31:53;;;;;;;26.27;4.40;;;;;;;;;;5094339;28;20430;-83
2023/12/23 14:34:19;;;;;;;23.92;4.55;;;;;;;;;;5093011;28;20429;-83